createdAt,value
2023-02-15T00:02:14.187Z,37.33
2023-02-15T00:06:17.336Z,37.97
2023-02-15T00:10:18.761Z,38.97
2023-02-15T00:14:21.680Z,36.73
2023-02-15T00:18:23.050Z,36.23
2023-02-15T00:22:26.336Z,43.33
2023-02-15T00:26:28.387Z,39.63
2023-02-15T00:30:31.865Z,40.63
2023-02-15T00:34:33.486Z,42.60
2023-02-15T00:38:36.782Z,39.40
2023-02-15T00:42:38.102Z,40.67
2023-02-15T00:46:39.562Z,39.83
2023-02-15T00:50:40.944Z,39.67
2023-02-15T00:54:43.620Z,39.27
2023-02-15T00:58:45.429Z,38.97
2023-02-15T01:02:46.784Z,38.87
2023-02-15T01:06:48.176Z,38.87
2023-02-15T01:10:50.968Z,35.70
2023-02-15T01:14:52.341Z,36.37
2023-02-15T01:18:54.413Z,37.20
2023-02-15T01:22:57.446Z,35.13
2023-02-15T01:27:00.130Z,37.30
2023-02-15T01:31:06.165Z,36.83
2023-02-15T01:35:08.334Z,37.10
2023-02-15T01:39:09.692Z,36.47
2023-02-15T01:43:13.046Z,35.83
2023-02-15T01:47:17.329Z,36.50
2023-02-15T01:51:23.278Z,34.80
2023-02-15T01:55:29.713Z,36.23
2023-02-15T01:59:33.609Z,33.53
2023-02-15T02:03:44.418Z,37.17
2023-02-15T02:07:47.526Z,37.50
2023-02-15T02:11:49.320Z,37.10
2023-02-15T02:16:01.687Z,35.97
2023-02-15T02:20:29.568Z,35.83
2023-02-15T02:25:06.730Z,40.87
2023-02-15T02:29:54.763Z,41.03
2023-02-15T02:34:05.488Z,42.50
2023-02-15T02:38:12.584Z,42.17
2023-02-15T02:42:20.699Z,41.20
2023-02-15T02:46:28.363Z,41.57
2023-02-15T02:50:31.562Z,40.70
2023-02-15T02:54:35.509Z,41.27
2023-02-15T02:58:41.430Z,43.13
2023-02-15T03:02:47.230Z,44.27
2023-02-15T03:06:54.649Z,43.30
2023-02-15T03:10:59.758Z,41.73
2023-02-15T03:15:03.917Z,42.57
2023-02-15T03:19:10.111Z,42.03
2023-02-15T03:23:17.597Z,41.10
2023-02-15T03:27:23.803Z,43.03
2023-02-15T03:31:29.177Z,45.87
2023-02-15T03:35:38.473Z,41.73
2023-02-15T03:39:48.955Z,42.60
2023-02-15T03:43:54.544Z,43.90
2023-02-15T03:47:59.548Z,46.13
2023-02-15T03:52:04.657Z,43.97
2023-02-15T03:56:07.387Z,43.83
2023-02-15T04:00:14.359Z,43.67
2023-02-15T04:04:19.997Z,41.77
2023-02-15T04:08:21.526Z,42.87
2023-02-15T04:12:24.333Z,40.30
2023-02-15T04:16:26.375Z,41.13
2023-02-15T04:20:27.767Z,46.13
2023-02-15T04:24:29.133Z,43.90
2023-02-15T04:28:32.067Z,43.50
2023-02-15T04:32:33.522Z,46.40
2023-02-15T04:36:34.887Z,45.50
2023-02-15T04:40:36.294Z,44.63
2023-02-15T04:44:38.987Z,38.33
2023-02-15T04:48:40.347Z,46.13
2023-02-15T04:52:41.708Z,43.63
2023-02-15T04:56:43.167Z,42.40
2023-02-15T05:00:45.875Z,37.93
2023-02-15T05:04:47.262Z,41.07
2023-02-15T05:08:48.643Z,40.97
2023-02-15T05:12:50.008Z,39.80
2023-02-15T05:16:52.758Z,38.47
2023-02-15T05:20:54.167Z,35.03
2023-02-15T05:24:55.663Z,40.57
2023-02-15T05:28:57.068Z,38.03
2023-02-15T05:32:59.780Z,36.43
2023-02-15T05:37:01.138Z,38.80
2023-02-15T05:41:02.467Z,40.00
2023-02-15T05:45:04.473Z,39.27
2023-02-15T05:49:07.471Z,36.77
2023-02-15T05:53:08.841Z,42.60
2023-02-15T05:57:10.252Z,37.37
2023-02-15T06:01:13.801Z,39.67
2023-02-15T06:05:16.762Z,38.70
2023-02-15T06:09:18.123Z,37.93
2023-02-15T06:13:19.469Z,40.63
2023-02-15T06:17:20.826Z,41.73
2023-02-15T06:21:23.518Z,44.90
2023-02-15T06:25:24.945Z,42.47
2023-02-15T06:29:26.356Z,41.23
2023-02-15T06:33:27.805Z,40.07
2023-02-15T06:37:30.602Z,42.67
2023-02-15T06:41:31.961Z,36.47
2023-02-15T06:45:39.745Z,37.83
2023-02-15T06:49:41.102Z,41.53
2023-02-15T06:53:43.826Z,44.20
2023-02-15T06:57:45.221Z,39.13
2023-02-15T07:01:46.638Z,43.27
2023-02-15T07:05:48.078Z,40.60
2023-02-15T07:09:50.812Z,37.30
2023-02-15T07:13:52.276Z,35.00
2023-02-15T07:17:53.666Z,36.17
2023-02-15T07:21:55.127Z,32.07
2023-02-15T07:25:59.188Z,39.13
2023-02-15T07:30:00.710Z,34.20
2023-02-15T07:34:02.099Z,34.03
2023-02-15T07:38:03.491Z,37.37
2023-02-15T07:42:06.224Z,32.23
2023-02-15T07:46:09.546Z,29.37
2023-02-15T07:50:10.970Z,37.90
2023-02-15T07:54:12.344Z,32.63
2023-02-15T07:58:15.084Z,34.37
2023-02-15T08:02:18.368Z,39.67
2023-02-15T08:06:20.744Z,32.57
2023-02-15T08:10:24.240Z,34.97
2023-02-15T08:14:28.538Z,34.33
2023-02-15T08:18:29.867Z,29.23
2023-02-15T08:22:31.226Z,32.77
2023-02-15T08:26:33.631Z,29.53
2023-02-15T08:30:36.574Z,29.90
2023-02-15T08:34:41.367Z,27.23
2023-02-15T08:38:43.570Z,28.73
2023-02-15T08:42:44.903Z,30.97
2023-02-15T08:46:49.038Z,31.73
2023-02-15T08:50:50.422Z,26.33
2023-02-15T08:54:52.216Z,29.07
2023-02-15T08:58:54.388Z,28.37
2023-02-15T09:02:57.082Z,29.40
2023-02-15T09:06:58.467Z,25.57
2023-02-15T09:11:10.110Z,27.87
2023-02-15T09:15:11.758Z,23.40
2023-02-15T09:19:14.759Z,25.60
2023-02-15T09:23:25.500Z,25.80
2023-02-15T09:27:28.385Z,28.83
2023-02-15T09:31:31.179Z,25.93
2023-02-15T09:35:33.947Z,21.93
2023-02-15T09:39:40.215Z,22.43
2023-02-15T09:43:47.747Z,23.77
2023-02-15T09:48:21.791Z,20.13
2023-02-15T09:52:39.696Z,23.77
2023-02-15T09:56:48.646Z,19.63
2023-02-15T10:00:59.460Z,24.10
2023-02-15T10:05:16.673Z,16.87
2023-02-15T10:09:32.141Z,19.40
2023-02-15T10:13:39.044Z,17.80
2023-02-15T10:18:05.596Z,18.93
2023-02-15T10:22:20.404Z,17.10
2023-02-15T10:26:26.381Z,19.50
2023-02-15T10:30:36.562Z,18.23
2023-02-15T10:34:39.986Z,17.03
2023-02-15T10:38:45.628Z,16.13
2023-02-15T10:43:05.966Z,17.30
2023-02-15T10:47:26.856Z,16.40
2023-02-15T10:51:38.258Z,19.63
2023-02-15T10:55:51.557Z,17.93
2023-02-15T11:00:14.725Z,15.87
2023-02-15T11:04:47.894Z,16.77
2023-02-15T11:08:54.059Z,16.67
2023-02-15T11:12:57.618Z,14.30
2023-02-15T11:17:06.523Z,14.73
2023-02-15T11:21:12.319Z,17.40
2023-02-15T11:25:19.182Z,12.63
2023-02-15T11:29:27.231Z,16.83
2023-02-15T11:33:42.233Z,12.70
2023-02-15T11:37:49.246Z,15.67
2023-02-15T11:41:56.051Z,16.00
2023-02-15T11:45:57.622Z,16.67
2023-02-15T11:50:00.576Z,13.57
2023-02-15T11:54:03.646Z,13.47
2023-02-15T11:58:13.292Z,13.00
2023-02-15T12:02:17.669Z,13.37
2023-02-15T12:06:27.312Z,15.03
2023-02-15T12:10:32.832Z,14.50
2023-02-15T12:14:47.913Z,11.57
2023-02-15T12:18:50.943Z,14.60
2023-02-15T12:22:59.592Z,14.23
2023-02-15T12:27:04.062Z,14.13
2023-02-15T12:31:19.937Z,13.93
2023-02-15T12:35:29.017Z,13.77
2023-02-15T12:39:32.688Z,13.07
2023-02-15T12:43:35.628Z,15.73
2023-02-15T12:47:37.042Z,13.30
2023-02-15T12:51:47.636Z,15.47
2023-02-15T12:55:56.823Z,13.40
2023-02-15T12:59:59.861Z,14.93
2023-02-15T13:04:04.059Z,13.60
2023-02-15T13:08:11.411Z,13.73
2023-02-15T13:12:20.918Z,14.27
2023-02-15T13:16:28.749Z,17.37
2023-02-15T13:20:30.824Z,14.87
2023-02-15T13:24:36.674Z,15.67
2023-02-15T13:28:44.156Z,15.53
2023-02-15T13:32:48.778Z,14.67
2023-02-15T13:36:55.327Z,15.23
2023-02-15T13:41:02.610Z,13.50
2023-02-15T13:45:26.012Z,14.03
2023-02-15T13:49:40.351Z,14.70
2023-02-15T13:54:04.814Z,15.13
2023-02-15T13:58:24.644Z,13.03
2023-02-15T14:02:52.118Z,15.43
2023-02-15T14:07:07.658Z,15.60
2023-02-15T14:11:18.869Z,13.37
2023-02-15T14:15:33.078Z,13.93
2023-02-15T14:19:42.861Z,13.50
2023-02-15T14:23:59.603Z,13.37
2023-02-15T14:28:06.564Z,12.47
2023-02-15T14:32:13.330Z,16.13
2023-02-15T14:36:20.093Z,16.07
2023-02-15T14:40:34.919Z,16.27
2023-02-15T14:44:39.475Z,18.70
2023-02-15T14:48:45.887Z,16.40
2023-02-15T14:53:20.706Z,15.20
2023-02-15T14:57:34.842Z,13.03
2023-02-15T15:01:39.174Z,14.50
2023-02-15T15:05:49.936Z,14.90
2023-02-15T15:10:00.118Z,11.50
2023-02-15T15:14:04.269Z,11.67
2023-02-15T15:18:11.877Z,13.23
2023-02-15T15:22:19.315Z,11.97
2023-02-15T15:26:32.290Z,12.17
2023-02-15T15:30:51.131Z,17.03
2023-02-15T15:35:12.704Z,18.10
2023-02-15T15:39:32.983Z,14.27
2023-02-15T15:44:23.489Z,13.37
2023-02-15T15:48:33.858Z,13.53
2023-02-15T15:52:36.817Z,13.13
2023-02-15T15:56:38.289Z,17.13
2023-02-15T16:00:43.797Z,13.50
2023-02-15T16:04:47.268Z,11.50
2023-02-15T16:08:48.704Z,12.33
2023-02-15T16:12:50.992Z,15.90
2023-02-15T16:16:56.422Z,14.80
2023-02-15T16:21:01.463Z,16.70
2023-02-15T16:25:31.620Z,13.87
2023-02-15T16:29:34.566Z,19.20
2023-02-15T16:33:37.156Z,16.67
2023-02-15T16:37:40.019Z,12.60
2023-02-15T16:41:41.686Z,17.13
2023-02-15T16:45:43.263Z,15.23
2023-02-15T16:49:47.706Z,14.00
2023-02-15T16:53:51.158Z,15.93
2023-02-15T16:57:56.939Z,15.33
2023-02-15T17:01:58.904Z,15.37
2023-02-15T17:06:02.337Z,16.13
2023-02-15T17:10:27.989Z,14.33
2023-02-15T17:14:31.790Z,16.60
2023-02-15T17:18:39.597Z,16.67
2023-02-15T17:22:41.195Z,12.80
2023-02-15T17:26:44.205Z,17.13
2023-02-15T17:30:46.289Z,15.60
2023-02-15T17:34:58.687Z,14.60
2023-02-15T17:39:06.698Z,16.43
2023-02-15T17:43:09.496Z,17.93
2023-02-15T17:47:15.590Z,16.93
2023-02-15T17:51:19.194Z,16.87
2023-02-15T17:55:22.727Z,16.03
2023-02-15T17:59:25.594Z,16.77
2023-02-15T18:03:34.924Z,14.63
2023-02-15T18:07:36.293Z,16.50
2023-02-15T18:11:37.717Z,17.50
2023-02-15T18:15:40.652Z,14.60
2023-02-15T18:19:43.696Z,16.33
2023-02-15T18:23:45.124Z,17.20
2023-02-15T18:27:46.902Z,14.73
2023-02-15T18:31:53.494Z,18.37
2023-02-15T18:35:54.900Z,19.73
2023-02-15T18:39:56.465Z,23.07
2023-02-15T18:43:57.947Z,22.20
2023-02-15T18:48:00.790Z,20.03
2023-02-15T18:52:02.968Z,19.97
2023-02-15T18:56:04.815Z,20.33
2023-02-15T19:00:14.102Z,16.27
2023-02-15T19:04:16.869Z,17.13
2023-02-15T19:08:20.999Z,16.43
2023-02-15T19:12:22.515Z,18.10
2023-02-15T19:16:30.714Z,15.03
2023-02-15T19:20:37.515Z,18.20
2023-02-15T19:24:41.744Z,19.33
2023-02-15T19:28:43.385Z,14.53
2023-02-15T19:32:45.311Z,17.93
2023-02-15T19:36:51.271Z,17.13
2023-02-15T19:40:53.227Z,18.33
2023-02-15T19:44:54.812Z,14.83
2023-02-15T19:48:56.198Z,17.10
2023-02-15T19:52:59.006Z,15.13
2023-02-15T19:57:01.022Z,15.73
2023-02-15T20:01:02.845Z,18.03
2023-02-15T20:05:04.935Z,20.03
2023-02-15T20:09:07.725Z,18.20
2023-02-15T20:13:12.804Z,24.43
2023-02-15T20:17:14.177Z,19.23
2023-02-15T20:21:16.397Z,21.03
2023-02-15T20:25:21.527Z,19.87
2023-02-15T20:29:22.899Z,22.70
2023-02-15T20:33:24.302Z,23.70
2023-02-15T20:37:29.056Z,20.60
2023-02-15T20:41:31.785Z,24.00
2023-02-15T20:45:34.196Z,22.67
2023-02-15T20:49:38.228Z,17.93
2023-02-15T20:53:39.979Z,23.17
2023-02-15T20:57:43.108Z,27.37
2023-02-15T21:01:44.821Z,21.90
2023-02-15T21:05:46.265Z,22.63
2023-02-15T21:09:48.237Z,24.73
2023-02-15T21:13:50.986Z,24.40
2023-02-15T21:17:52.654Z,25.87
2023-02-15T21:21:54.178Z,27.30
2023-02-15T21:25:56.208Z,23.57
2023-02-15T21:29:58.970Z,23.90
2023-02-15T21:34:00.455Z,23.33
2023-02-15T21:38:01.890Z,25.67
2023-02-15T21:42:10.327Z,22.07
2023-02-15T21:46:14.910Z,21.37
2023-02-15T21:50:18.160Z,23.33
2023-02-15T21:54:20.881Z,19.63
2023-02-15T21:58:24.735Z,28.20
2023-02-15T22:02:29.531Z,21.90
2023-02-15T22:06:30.984Z,23.67
2023-02-15T22:10:33.184Z,24.10
2023-02-15T22:14:36.941Z,21.13
2023-02-15T22:18:39.692Z,22.13
2023-02-15T22:22:41.035Z,20.20
2023-02-15T22:26:42.455Z,21.03
2023-02-15T22:30:44.819Z,21.83
2023-02-15T22:34:47.573Z,23.83
2023-02-15T22:38:49.004Z,23.07
2023-02-15T22:42:52.584Z,23.87
2023-02-15T22:46:54.105Z,23.50
2023-02-15T22:50:57.276Z,20.20
2023-02-15T22:54:58.661Z,24.60
2023-02-15T22:59:04.532Z,28.90
2023-02-15T23:03:14.312Z,21.03
2023-02-15T23:07:18.524Z,19.93
2023-02-15T23:11:19.997Z,22.30
2023-02-15T23:15:21.334Z,21.03
2023-02-15T23:19:22.801Z,24.80
2023-02-15T23:23:32.279Z,25.30
2023-02-15T23:27:33.666Z,24.43
2023-02-15T23:31:40.128Z,23.83
2023-02-15T23:35:41.620Z,26.30
2023-02-15T23:39:44.327Z,23.87
2023-02-15T23:43:49.551Z,23.50
2023-02-15T23:47:51.070Z,22.97
2023-02-15T23:51:54.074Z,26.63
2023-02-15T23:55:57.404Z,23.63
2023-02-15T23:59:58.801Z,21.23
